createdAt,value
2022-11-27T00:00:31.490Z,9.00
2022-11-27T00:02:59.970Z,9.37
2022-11-27T00:05:28.158Z,10.10
2022-11-27T00:07:58.542Z,9.50
2022-11-27T00:10:30.022Z,8.60
2022-11-27T00:13:01.575Z,8.37
2022-11-27T00:15:30.026Z,8.80
2022-11-27T00:17:58.611Z,9.33
2022-11-27T00:20:30.348Z,8.00
2022-11-27T00:22:59.835Z,7.77
2022-11-27T00:25:28.368Z,7.47
2022-11-27T00:27:59.971Z,8.53
2022-11-27T00:30:29.392Z,7.50
2022-11-27T00:32:58.119Z,7.63
2022-11-27T00:35:26.259Z,7.73
2022-11-27T00:37:54.511Z,8.03
2022-11-27T00:40:24.311Z,6.70
2022-11-27T00:42:59.548Z,7.73
2022-11-27T00:45:40.162Z,8.20
2022-11-27T00:48:14.620Z,7.50
2022-11-27T00:50:54.666Z,8.20
2022-11-27T00:53:22.632Z,7.73
2022-11-27T00:56:03.341Z,7.80
2022-11-27T00:58:47.863Z,8.47
2022-11-27T01:01:34.113Z,8.60
2022-11-27T01:04:05.465Z,8.30
2022-11-27T01:06:36.614Z,9.03
2022-11-27T01:09:18.301Z,8.80
2022-11-27T01:11:53.758Z,9.07
2022-11-27T01:14:25.605Z,8.80
2022-11-27T01:16:59.291Z,8.70
2022-11-27T01:19:39.196Z,8.73
2022-11-27T01:22:19.369Z,8.97
2022-11-27T01:24:47.226Z,9.10
2022-11-27T01:27:16.194Z,8.37
2022-11-27T01:29:43.798Z,8.83
2022-11-27T01:32:11.517Z,8.03
2022-11-27T01:34:39.458Z,8.57
2022-11-27T01:37:07.264Z,7.40
2022-11-27T01:39:34.869Z,7.90
2022-11-27T01:42:02.490Z,8.67
2022-11-27T01:44:55.814Z,8.70
2022-11-27T01:47:30.451Z,8.83
2022-11-27T01:50:04.849Z,8.63
2022-11-27T01:52:35.316Z,9.30
2022-11-27T01:55:06.012Z,8.70
2022-11-27T01:57:36.443Z,8.77
2022-11-27T02:00:07.911Z,8.97
2022-11-27T02:02:35.575Z,8.93
2022-11-27T02:05:03.356Z,9.43
2022-11-27T02:07:31.095Z,9.33
2022-11-27T02:09:58.771Z,9.27
2022-11-27T02:12:27.596Z,10.07
2022-11-27T02:15:01.035Z,8.87
2022-11-27T02:17:37.526Z,8.83
2022-11-27T02:20:16.276Z,8.60
2022-11-27T02:22:58.039Z,9.43
2022-11-27T02:25:32.633Z,9.57
2022-11-27T02:28:11.178Z,10.03
2022-11-27T02:30:44.844Z,9.80
2022-11-27T02:33:13.743Z,9.60
2022-11-27T02:35:47.154Z,10.13
2022-11-27T02:38:17.902Z,12.03
2022-11-27T02:40:50.555Z,11.93
2022-11-27T02:43:21.880Z,12.50
2022-11-27T02:45:52.387Z,11.57
2022-11-27T02:48:22.540Z,12.43
2022-11-27T02:50:51.453Z,13.03
2022-11-27T02:53:22.158Z,12.97
2022-11-27T02:55:50.246Z,13.17
2022-11-27T02:58:21.749Z,14.00
2022-11-27T03:00:51.613Z,15.57
2022-11-27T03:03:22.760Z,14.13
2022-11-27T03:05:52.196Z,14.57
2022-11-27T03:08:23.768Z,14.57
2022-11-27T03:10:55.322Z,14.53
2022-11-27T03:13:22.967Z,13.80
2022-11-27T03:15:58.387Z,13.80
2022-11-27T03:18:32.246Z,13.77
2022-11-27T03:21:04.492Z,13.80
2022-11-27T03:23:32.097Z,14.20
2022-11-27T03:25:59.939Z,14.30
2022-11-27T03:28:29.023Z,14.57
2022-11-27T03:30:58.006Z,13.93
2022-11-27T03:33:25.768Z,13.67
2022-11-27T03:35:53.618Z,13.97
2022-11-27T03:38:21.420Z,13.90
2022-11-27T03:40:55.450Z,14.20
2022-11-27T03:43:25.081Z,14.87
2022-11-27T03:45:56.071Z,12.90
2022-11-27T03:48:31.377Z,15.67
2022-11-27T03:51:07.076Z,15.27
2022-11-27T03:53:43.698Z,14.87
2022-11-27T03:56:15.150Z,15.43
2022-11-27T03:58:47.285Z,15.17
2022-11-27T04:01:17.377Z,14.83
2022-11-27T04:03:46.448Z,15.23
2022-11-27T04:06:14.071Z,14.03
2022-11-27T04:08:41.894Z,15.70
2022-11-27T04:11:09.568Z,15.93
2022-11-27T04:13:37.767Z,15.00
2022-11-27T04:16:06.081Z,16.00
2022-11-27T04:18:33.766Z,14.60
2022-11-27T04:21:02.659Z,15.53
2022-11-27T04:23:30.252Z,15.00
2022-11-27T04:25:57.846Z,16.97
2022-11-27T04:28:25.425Z,19.13
2022-11-27T04:30:54.734Z,21.33
2022-11-27T04:33:22.406Z,19.67
2022-11-27T04:35:50.040Z,18.77
2022-11-27T04:38:19.140Z,17.93
2022-11-27T04:40:46.758Z,19.27
2022-11-27T04:43:14.428Z,17.07
2022-11-27T04:45:43.720Z,14.43
2022-11-27T04:48:11.421Z,16.07
2022-11-27T04:50:39.218Z,15.07
2022-11-27T04:53:06.847Z,15.60
2022-11-27T04:55:35.754Z,14.03
2022-11-27T04:58:03.362Z,13.97
2022-11-27T05:00:30.961Z,13.60
2022-11-27T05:02:58.642Z,15.43
2022-11-27T05:05:26.222Z,13.90
2022-11-27T05:07:53.825Z,14.07
2022-11-27T05:10:21.430Z,12.67
2022-11-27T05:12:50.371Z,12.33
2022-11-27T05:15:18.150Z,11.63
2022-11-27T05:17:45.793Z,12.07
2022-11-27T05:20:13.456Z,12.70
2022-11-27T05:22:41.048Z,11.37
2022-11-27T05:25:09.211Z,12.33
2022-11-27T05:27:36.800Z,11.70
2022-11-27T05:30:07.230Z,11.10
2022-11-27T05:32:34.812Z,12.87
2022-11-27T05:35:02.353Z,13.53
2022-11-27T05:37:30.033Z,12.53
2022-11-27T05:39:57.644Z,12.93
2022-11-27T05:42:25.203Z,13.07
2022-11-27T05:44:57.850Z,14.20
2022-11-27T05:47:27.350Z,13.37
2022-11-27T05:49:54.936Z,12.80
2022-11-27T05:52:22.525Z,12.63
2022-11-27T05:54:50.120Z,13.00
2022-11-27T05:57:17.700Z,13.03
2022-11-27T05:59:45.338Z,12.77
2022-11-27T06:02:18.460Z,15.03
2022-11-27T06:04:49.753Z,13.53
2022-11-27T06:07:17.488Z,14.60
2022-11-27T06:09:45.270Z,14.77
2022-11-27T06:12:12.825Z,16.37
2022-11-27T06:14:40.659Z,15.17
2022-11-27T06:17:08.374Z,17.03
2022-11-27T06:19:36.074Z,17.63
2022-11-27T06:22:04.988Z,17.80
2022-11-27T06:24:32.542Z,16.53
2022-11-27T06:27:00.147Z,17.33
2022-11-27T06:29:27.777Z,18.03
2022-11-27T06:31:55.383Z,17.23
2022-11-27T06:34:23.066Z,17.47
2022-11-27T06:36:51.398Z,18.07
2022-11-27T06:39:20.366Z,18.07
2022-11-27T06:41:47.974Z,18.90
2022-11-27T06:44:15.544Z,19.07
2022-11-27T06:46:43.321Z,18.40
2022-11-27T06:49:10.991Z,18.23
2022-11-27T06:51:38.571Z,17.73
2022-11-27T06:54:06.351Z,18.10
2022-11-27T06:56:35.464Z,19.40
2022-11-27T06:59:03.231Z,18.80
2022-11-27T07:01:32.170Z,19.27
2022-11-27T07:03:59.883Z,20.00
2022-11-27T07:06:28.228Z,20.10
2022-11-27T07:08:56.410Z,21.13
2022-11-27T07:11:25.496Z,20.03
2022-11-27T07:13:57.171Z,20.40
2022-11-27T07:16:25.390Z,21.07
2022-11-27T07:18:54.439Z,21.43
2022-11-27T07:21:22.906Z,20.40
2022-11-27T07:23:50.524Z,19.73
2022-11-27T07:26:19.571Z,19.43
2022-11-27T07:28:47.632Z,20.20
2022-11-27T07:31:19.610Z,21.07
2022-11-27T07:33:47.339Z,20.57
2022-11-27T07:36:16.836Z,20.27
2022-11-27T07:38:44.885Z,20.83
2022-11-27T07:41:13.135Z,20.47
2022-11-27T07:43:41.108Z,19.37
2022-11-27T07:46:11.271Z,19.80
2022-11-27T07:48:40.250Z,18.83
2022-11-27T07:51:08.521Z,19.10
2022-11-27T07:53:37.325Z,19.70
2022-11-27T07:56:05.513Z,19.13
2022-11-27T07:58:33.225Z,18.67
2022-11-27T08:01:00.961Z,18.07
2022-11-27T08:03:28.690Z,19.30
2022-11-27T08:05:57.705Z,16.87
2022-11-27T08:08:25.333Z,15.73
2022-11-27T08:10:52.973Z,16.53
2022-11-27T08:13:20.538Z,16.20
2022-11-27T08:15:48.384Z,15.50
2022-11-27T08:18:16.014Z,17.20
2022-11-27T08:20:43.621Z,16.83
2022-11-27T08:23:12.594Z,15.13
2022-11-27T08:25:40.193Z,14.87
2022-11-27T08:28:07.774Z,14.00
2022-11-27T08:30:35.443Z,13.60
2022-11-27T08:33:03.078Z,13.20
2022-11-27T08:35:30.678Z,12.30
2022-11-27T08:37:58.606Z,12.53
2022-11-27T08:40:27.583Z,12.60
2022-11-27T08:42:55.167Z,12.67
2022-11-27T08:45:22.835Z,12.60
2022-11-27T08:47:50.468Z,11.83
2022-11-27T08:50:18.639Z,12.53
2022-11-27T08:52:46.190Z,12.10
2022-11-27T08:55:13.792Z,11.80
2022-11-27T08:57:42.712Z,12.00
2022-11-27T09:00:11.761Z,11.90
2022-11-27T09:02:39.549Z,12.20
2022-11-27T09:05:07.788Z,11.47
2022-11-27T09:07:35.458Z,12.73
2022-11-27T09:10:03.040Z,10.77
2022-11-27T09:12:30.700Z,10.57
2022-11-27T09:14:59.723Z,11.00
2022-11-27T09:17:27.433Z,11.53
2022-11-27T09:19:55.026Z,12.20
2022-11-27T09:22:22.689Z,11.63
2022-11-27T09:24:50.314Z,11.73
2022-11-27T09:27:17.964Z,10.97
2022-11-27T09:29:45.527Z,10.43
2022-11-27T09:32:14.522Z,11.17
2022-11-27T09:34:42.782Z,10.63
2022-11-27T09:37:11.119Z,10.40
2022-11-27T09:39:39.041Z,11.57
2022-11-27T09:42:09.630Z,11.90
2022-11-27T09:44:42.954Z,11.20
2022-11-27T09:47:17.514Z,11.27
2022-11-27T09:49:47.178Z,11.70
2022-11-27T09:52:21.315Z,12.20
2022-11-27T09:54:54.868Z,12.03
2022-11-27T09:57:28.377Z,13.30
2022-11-27T09:59:57.261Z,11.17
2022-11-27T10:02:29.331Z,11.33
2022-11-27T10:05:13.550Z,11.77
2022-11-27T10:07:53.901Z,11.07
2022-11-27T10:10:32.281Z,11.67
2022-11-27T10:13:06.904Z,11.77
2022-11-27T10:15:39.826Z,12.50
2022-11-27T10:18:14.315Z,11.30
2022-11-27T10:20:44.893Z,13.10
2022-11-27T10:23:20.024Z,11.47
2022-11-27T10:25:50.489Z,12.67
2022-11-27T10:28:27.728Z,12.80
2022-11-27T10:30:59.337Z,11.00
2022-11-27T10:33:33.278Z,11.70
2022-11-27T10:36:02.175Z,11.57
2022-11-27T10:38:31.178Z,11.80
2022-11-27T10:41:06.465Z,11.97
2022-11-27T10:43:35.855Z,12.03
2022-11-27T10:46:06.696Z,13.17
2022-11-27T10:48:35.727Z,14.27
2022-11-27T10:51:03.495Z,13.53
2022-11-27T10:53:33.589Z,13.50
2022-11-27T10:56:37.497Z,13.27
2022-11-27T10:59:07.396Z,12.97
2022-11-27T11:01:44.478Z,13.10
2022-11-27T11:04:36.886Z,13.53
2022-11-27T11:07:04.052Z,13.47
2022-11-27T11:09:34.534Z,12.60
2022-11-27T11:12:08.309Z,13.13
2022-11-27T11:14:35.995Z,14.13
2022-11-27T11:17:16.509Z,13.97
2022-11-27T11:19:46.551Z,14.27
2022-11-27T11:22:16.203Z,18.17
2022-11-27T11:24:47.301Z,13.80
2022-11-27T11:27:16.879Z,12.20
2022-11-27T11:29:49.031Z,12.50
2022-11-27T11:32:23.354Z,13.20
2022-11-27T11:35:00.582Z,13.43
2022-11-27T11:37:30.359Z,12.67
2022-11-27T11:39:59.863Z,11.77
2022-11-27T11:42:29.460Z,12.00
2022-11-27T11:45:03.395Z,12.60
2022-11-27T11:47:31.305Z,12.17
2022-11-27T11:50:00.407Z,12.53
2022-11-27T11:52:51.495Z,12.80
2022-11-27T11:55:21.223Z,13.33
2022-11-27T11:58:10.241Z,12.83
2022-11-27T12:01:04.713Z,12.60
2022-11-27T12:03:38.547Z,14.13
2022-11-27T12:06:29.924Z,14.83
2022-11-27T12:09:04.939Z,13.73
2022-11-27T12:11:37.933Z,15.57
2022-11-27T12:14:17.352Z,16.40
2022-11-27T12:16:53.407Z,16.97
2022-11-27T12:19:55.814Z,17.73
2022-11-27T12:22:38.097Z,18.80
2022-11-27T12:25:18.046Z,18.10
2022-11-27T12:27:58.148Z,17.77
2022-11-27T12:30:28.160Z,17.93
2022-11-27T12:33:15.382Z,18.87
2022-11-27T12:35:44.308Z,18.70
2022-11-27T12:38:25.273Z,19.40
2022-11-27T12:41:13.231Z,19.40
2022-11-27T12:43:44.167Z,18.23
2022-11-27T12:46:16.004Z,19.37
2022-11-27T12:48:47.552Z,19.03
2022-11-27T12:51:20.670Z,17.97
2022-11-27T12:53:53.477Z,18.97
2022-11-27T12:56:24.590Z,19.73
2022-11-27T12:58:55.069Z,19.17
2022-11-27T13:01:26.973Z,18.83
2022-11-27T13:04:04.427Z,18.87
2022-11-27T13:06:34.365Z,19.03
2022-11-27T13:09:06.066Z,18.70
2022-11-27T13:11:34.763Z,19.30
2022-11-27T13:14:07.562Z,19.70
2022-11-27T13:16:38.412Z,19.73
2022-11-27T13:19:12.666Z,20.63
2022-11-27T13:21:41.179Z,19.20
2022-11-27T13:24:13.007Z,21.20
2022-11-27T13:26:43.822Z,19.47
2022-11-27T13:29:18.863Z,24.93
2022-11-27T13:31:48.959Z,19.10
2022-11-27T13:34:19.456Z,19.47
2022-11-27T13:36:50.460Z,20.63
2022-11-27T13:39:25.448Z,21.57
2022-11-27T13:42:01.685Z,20.70
2022-11-27T13:44:30.531Z,21.37
2022-11-27T13:47:01.448Z,25.53
2022-11-27T13:49:30.411Z,23.93
2022-11-27T13:52:09.534Z,23.33
2022-11-27T13:54:38.726Z,22.07
2022-11-27T13:57:14.741Z,20.43
2022-11-27T13:59:42.584Z,22.80
2022-11-27T14:02:10.459Z,23.93
2022-11-27T14:04:55.628Z,25.23
2022-11-27T14:07:24.639Z,22.77
2022-11-27T14:09:56.214Z,23.13
2022-11-27T14:12:26.053Z,22.23
2022-11-27T14:15:06.845Z,23.93
2022-11-27T14:17:37.680Z,20.63
2022-11-27T14:20:22.802Z,20.63
2022-11-27T14:23:11.629Z,22.43
2022-11-27T14:25:41.863Z,24.03
2022-11-27T14:28:15.362Z,23.97
2022-11-27T14:30:47.118Z,20.50
2022-11-27T14:33:20.513Z,22.43
2022-11-27T14:35:51.537Z,20.27
2022-11-27T14:38:19.752Z,19.10
2022-11-27T14:40:49.572Z,19.73
2022-11-27T14:43:18.821Z,19.70
2022-11-27T14:45:48.594Z,20.63
2022-11-27T14:48:23.661Z,21.37
2022-11-27T14:50:52.172Z,23.37
2022-11-27T14:53:20.526Z,25.53
2022-11-27T14:55:50.396Z,21.17
2022-11-27T14:58:19.832Z,23.37
2022-11-27T15:00:53.061Z,21.93
2022-11-27T15:03:21.763Z,20.43
2022-11-27T15:05:54.616Z,25.60
2022-11-27T15:08:22.440Z,29.47
2022-11-27T15:10:54.050Z,21.13
2022-11-27T15:13:24.390Z,24.37
2022-11-27T15:15:58.770Z,22.90
2022-11-27T15:18:26.813Z,25.03
2022-11-27T15:20:55.513Z,23.23
2022-11-27T15:23:25.284Z,22.33
2022-11-27T15:26:14.367Z,21.57
2022-11-27T15:28:43.590Z,20.67
2022-11-27T15:31:30.034Z,20.97
2022-11-27T15:34:00.488Z,20.43
2022-11-27T15:36:28.493Z,20.70
2022-11-27T15:39:06.793Z,19.87
2022-11-27T15:41:40.871Z,21.43
2022-11-27T15:44:11.068Z,20.50
2022-11-27T15:46:38.634Z,21.03
2022-11-27T15:49:09.797Z,19.83
2022-11-27T15:51:37.382Z,19.70
2022-11-27T15:54:05.200Z,20.13
2022-11-27T15:56:32.889Z,19.43
2022-11-27T15:59:01.881Z,18.87
2022-11-27T16:01:29.554Z,19.50
2022-11-27T16:03:57.161Z,20.07
2022-11-27T16:06:24.943Z,20.63
2022-11-27T16:08:55.438Z,19.47
2022-11-27T16:11:23.041Z,21.17
2022-11-27T16:13:50.783Z,21.77
2022-11-27T16:16:20.140Z,19.37
2022-11-27T16:18:47.914Z,20.97
2022-11-27T16:21:17.238Z,20.57
2022-11-27T16:23:45.321Z,18.80
2022-11-27T16:26:14.642Z,19.27
2022-11-27T16:28:43.065Z,18.10
2022-11-27T16:31:13.468Z,18.63
2022-11-27T16:33:43.104Z,17.83
2022-11-27T16:36:12.387Z,18.87
2022-11-27T16:38:40.492Z,18.40
2022-11-27T16:41:10.785Z,18.00
2022-11-27T16:43:40.794Z,18.53
2022-11-27T16:46:10.350Z,19.53
2022-11-27T16:48:39.531Z,19.63
2022-11-27T16:51:10.002Z,19.20
2022-11-27T16:53:39.393Z,20.07
2022-11-27T16:56:07.503Z,19.60
2022-11-27T16:58:35.876Z,19.50
2022-11-27T17:01:05.868Z,19.50
2022-11-27T17:03:33.703Z,19.33
2022-11-27T17:06:01.303Z,19.40
2022-11-27T17:08:30.249Z,18.83
2022-11-27T17:10:57.840Z,20.03
2022-11-27T17:13:25.518Z,18.77
2022-11-27T17:15:53.065Z,17.87
2022-11-27T17:18:20.646Z,18.53
2022-11-27T17:20:48.210Z,20.90
2022-11-27T17:23:15.798Z,22.77
2022-11-27T17:25:44.812Z,21.60
2022-11-27T17:28:12.400Z,18.87
2022-11-27T17:30:40.150Z,17.77
2022-11-27T17:33:07.716Z,17.73
2022-11-27T17:35:35.307Z,18.43
2022-11-27T17:38:03.005Z,18.33
2022-11-27T17:40:30.817Z,19.80
2022-11-27T17:42:59.837Z,19.47
2022-11-27T17:45:27.533Z,20.10
2022-11-27T17:47:55.705Z,18.03
2022-11-27T17:50:23.394Z,18.13
2022-11-27T17:52:53.488Z,24.23
2022-11-27T17:55:21.269Z,22.43
2022-11-27T17:57:48.996Z,20.20
2022-11-27T18:00:18.717Z,18.90
2022-11-27T18:02:46.359Z,18.20
2022-11-27T18:05:13.881Z,18.77
2022-11-27T18:07:41.585Z,16.93
2022-11-27T18:10:10.217Z,16.73
2022-11-27T18:12:37.800Z,17.43
2022-11-27T18:15:06.191Z,18.40
2022-11-27T18:17:35.187Z,17.60
2022-11-27T18:20:03.761Z,18.47
2022-11-27T18:22:31.436Z,17.60
2022-11-27T18:24:59.137Z,17.37
2022-11-27T18:27:26.856Z,17.77
2022-11-27T18:29:54.564Z,16.73
2022-11-27T18:32:22.924Z,18.57
2022-11-27T18:34:52.942Z,16.03
2022-11-27T18:37:20.558Z,18.13
2022-11-27T18:39:48.540Z,18.77
2022-11-27T18:42:16.181Z,17.93
2022-11-27T18:44:45.331Z,17.70
2022-11-27T18:47:13.763Z,17.83
2022-11-27T18:49:41.988Z,18.37
2022-11-27T18:52:11.418Z,20.97
2022-11-27T18:54:39.342Z,18.93
2022-11-27T18:57:07.292Z,19.30
2022-11-27T18:59:35.008Z,17.67
2022-11-27T19:02:02.874Z,18.97
2022-11-27T19:04:30.691Z,17.57
2022-11-27T19:06:58.274Z,18.27
2022-11-27T19:09:27.253Z,20.43
2022-11-27T19:11:54.849Z,20.07
2022-11-27T19:14:22.582Z,19.33
2022-11-27T19:16:50.844Z,18.83
2022-11-27T19:22:09.495Z,18.63
2022-11-27T19:24:38.498Z,20.63
2022-11-27T19:27:06.573Z,22.70
2022-11-27T19:29:34.248Z,24.97
2022-11-27T19:32:01.835Z,23.23
2022-11-27T19:34:29.685Z,22.80
2022-11-27T19:36:58.312Z,22.73
2022-11-27T19:39:26.875Z,22.40
2022-11-27T19:41:57.667Z,20.97
2022-11-27T19:44:25.561Z,21.17
2022-11-27T19:46:53.348Z,18.63
2022-11-27T19:49:21.386Z,18.47
2022-11-27T19:51:49.775Z,16.53
2022-11-27T19:54:19.255Z,16.80
2022-11-27T19:56:47.061Z,16.73
2022-11-27T19:59:16.153Z,16.47
2022-11-27T20:01:43.805Z,16.60
2022-11-27T20:04:12.089Z,16.70
2022-11-27T20:06:40.946Z,18.73
2022-11-27T20:09:09.766Z,17.77
2022-11-27T20:11:37.698Z,17.70
2022-11-27T20:14:06.168Z,15.47
2022-11-27T20:16:35.890Z,16.10
2022-11-27T20:19:05.391Z,15.17
2022-11-27T20:21:33.334Z,14.77
2022-11-27T20:24:02.503Z,15.67
2022-11-27T20:26:31.279Z,16.30
2022-11-27T20:28:59.303Z,15.40
2022-11-27T20:31:29.164Z,15.00
2022-11-27T20:34:01.541Z,13.30
2022-11-27T20:36:30.245Z,13.27
2022-11-27T20:38:59.901Z,13.33
2022-11-27T20:41:28.328Z,12.57
2022-11-27T20:43:57.853Z,13.47
2022-11-27T20:46:25.775Z,12.70
2022-11-27T20:48:54.590Z,12.03
2022-11-27T20:51:27.498Z,12.17
2022-11-27T20:53:55.710Z,11.97
2022-11-27T20:56:23.512Z,11.40
2022-11-27T20:58:51.107Z,11.80
2022-11-27T21:01:21.969Z,12.60
2022-11-27T21:03:52.501Z,12.00
2022-11-27T21:06:23.279Z,11.93
2022-11-27T21:08:51.368Z,11.47
2022-11-27T21:11:25.072Z,11.10
2022-11-27T21:13:53.188Z,12.10
2022-11-27T21:16:21.029Z,12.30
2022-11-27T21:18:48.660Z,11.47
2022-11-27T21:21:16.486Z,12.70
2022-11-27T21:23:45.879Z,10.97
2022-11-27T21:26:14.052Z,11.27
2022-11-27T21:28:42.720Z,11.47
2022-11-27T21:31:17.253Z,11.73
2022-11-27T21:33:46.849Z,12.33
2022-11-27T21:36:14.721Z,12.63
2022-11-27T21:38:42.621Z,12.27
2022-11-27T21:41:13.669Z,11.67
2022-11-27T21:43:41.517Z,12.63
2022-11-27T21:46:09.511Z,12.47
2022-11-27T21:48:37.264Z,11.67
2022-11-27T21:51:06.107Z,12.13
2022-11-27T21:53:34.774Z,14.50
2022-11-27T21:56:05.161Z,13.27
2022-11-27T21:58:34.743Z,15.13
2022-11-27T22:01:02.563Z,13.83
2022-11-27T22:03:30.318Z,12.27
2022-11-27T22:05:58.988Z,10.10
2022-11-27T22:08:26.686Z,10.27
2022-11-27T22:10:54.394Z,10.67
2022-11-27T22:13:22.018Z,9.43
2022-11-27T22:15:51.087Z,10.17
2022-11-27T22:18:18.696Z,9.87
2022-11-27T22:20:46.313Z,8.73
2022-11-27T22:23:14.016Z,9.57
2022-11-27T22:25:41.722Z,9.77
2022-11-27T22:28:09.518Z,9.13
2022-11-27T22:30:37.411Z,9.10
2022-11-27T22:33:06.475Z,9.47
2022-11-27T22:35:34.695Z,8.90
2022-11-27T22:38:02.802Z,9.37
2022-11-27T22:40:30.667Z,10.30
2022-11-27T22:42:58.325Z,10.20
2022-11-27T22:45:26.138Z,9.80
2022-11-27T22:47:54.464Z,9.37
2022-11-27T22:50:23.409Z,9.80
2022-11-27T22:52:54.558Z,10.00
2022-11-27T22:55:25.159Z,10.27
2022-11-27T22:57:52.786Z,9.53
2022-11-27T23:00:21.496Z,9.30
2022-11-27T23:02:49.310Z,9.27
2022-11-27T23:05:17.258Z,9.57
2022-11-27T23:07:46.487Z,9.47
2022-11-27T23:10:14.234Z,8.33
2022-11-27T23:12:42.041Z,9.07
2022-11-27T23:15:10.481Z,8.50
2022-11-27T23:17:38.191Z,8.40
2022-11-27T23:20:07.537Z,9.23
2022-11-27T23:22:35.463Z,9.30
2022-11-27T23:25:04.900Z,9.83
2022-11-27T23:27:32.530Z,9.10
2022-11-27T23:30:00.158Z,9.07
2022-11-27T23:32:27.825Z,9.93
2022-11-27T23:34:55.512Z,9.77
2022-11-27T23:37:23.141Z,9.53
2022-11-27T23:39:50.764Z,9.50
2022-11-27T23:42:19.922Z,9.37
2022-11-27T23:44:47.613Z,8.80
2022-11-27T23:47:15.334Z,8.80
2022-11-27T23:49:43.407Z,9.13
2022-11-27T23:52:16.848Z,8.60
2022-11-27T23:54:44.886Z,9.20
2022-11-27T23:57:12.542Z,8.63
2022-11-27T23:59:41.606Z,8.47
